Time;durP1;ratioP1;P1;durP2;ratioP2;P2;SDS_P1;SDS_P2;PMS_P1;PMS_P2;Temp;Humidity;BMP_temperature;BMP_pressure;BME280_temperature;BME280_humidity;BME280_pressure;Samples;Min_cycle;Max_cycle;Signal;HPM_P1;HPM_P2
2022/01/11 00:01:18;;;;;;;33.40;12.17;;;;;;;11.09;43.59;103058.78;5114190;27;20042;-69
2022/01/11 00:03:43;;;;;;;36.53;11.87;;;;;;;11.18;43.54;103058.97;5115054;27;20121;-69
2022/01/11 00:08:45;;;;;;;36.97;11.70;;;;;;;12.14;41.55;103050.53;5112371;27;20031;-69
2022/01/11 00:11:11;;;;;;;42.03;13.50;;;;;;;11.98;41.32;103055.47;5109004;27;20038;-69
2022/01/11 00:13:39;;;;;;;44.57;12.20;;;;;;;12.11;41.50;103058.34;5115168;27;20023;-69
2022/01/11 00:16:06;;;;;;;36.97;12.50;;;;;;;11.93;41.41;103057.09;5127648;27;20027;-69
2022/01/11 00:18:31;;;;;;;37.50;11.93;;;;;;;11.85;42.24;103061.28;5094315;27;20023;-68
2022/01/11 00:20:57;;;;;;;37.50;13.30;;;;;;;12.26;41.09;103055.13;5114136;27;20043;-69
2022/01/11 00:25:50;;;;;;;44.70;14.10;;;;;;;11.73;42.47;103058.41;5127735;27;20027;-70
2022/01/11 00:28:17;;;;;;;40.67;12.40;;;;;;;11.55;43.18;103054.56;5094240;28;20043;-69
2022/01/11 00:30:44;;;;;;;37.03;12.77;;;;;;;12.24;41.67;103064.69;5105806;27;20033;-69
2022/01/11 00:33:15;;;;;;;45.37;13.13;;;;;;;12.29;41.69;103061.28;5113984;27;20460;-69
2022/01/11 00:35:43;;;;;;;44.77;14.40;;;;;;;12.85;39.82;103062.25;5113081;27;20037;-69
2022/01/11 00:38:18;;;;;;;39.23;12.17;;;;;;;12.66;39.93;103066.31;5113899;27;20505;-69
2022/01/11 00:40:49;;;;;;;41.73;13.17;;;;;;;12.20;40.98;103076.88;5112696;27;20508;-69
2022/01/11 00:43:17;;;;;;;39.70;13.47;;;;;;;11.53;41.76;103082.47;5132522;27;20252;-69
2022/01/11 00:45:42;;;;;;;39.50;13.37;;;;;;;11.69;41.90;103073.19;5132442;27;20015;-69
2022/01/11 00:48:08;;;;;;;45.00;12.60;;;;;;;11.75;42.16;103082.94;5107961;27;20027;-69
2022/01/11 00:50:36;;;;;;;54.20;14.27;;;;;;;12.14;41.27;103076.75;5131502;27;20035;-71
2022/01/11 00:53:02;;;;;;;46.27;14.00;;;;;;;11.50;42.22;103082.41;5113916;27;20043;-69
2022/01/11 00:55:28;;;;;;;45.83;14.13;;;;;;;11.88;41.59;103085.84;5113788;27;20079;-69
2022/01/11 00:57:53;;;;;;;47.97;13.80;;;;;;;11.80;41.71;103086.50;5096529;27;21962;-69
2022/01/11 01:00:18;;;;;;;54.90;15.73;;;;;;;11.13;43.68;103079.81;5100921;27;20436;-69
2022/01/11 01:02:44;;;;;;;48.00;14.03;;;;;;;11.01;43.84;103075.16;5113773;27;20027;-69
2022/01/11 01:05:10;;;;;;;48.50;13.47;;;;;;;12.14;41.83;103080.22;5112637;27;20031;-68
2022/01/11 01:07:35;;;;;;;52.93;16.50;;;;;;;11.54;43.15;103079.00;5112673;27;20030;-69
2022/01/11 01:10:13;;;;;;;50.63;15.50;;;;;;;11.42;43.75;103079.59;5096636;27;20035;-69
2022/01/11 01:12:39;;;;;;;58.90;16.67;;;;;;;12.12;42.10;103086.31;5131823;27;20019;-69
2022/01/11 01:15:05;;;;;;;60.03;17.03;;;;;;;11.57;43.63;103067.69;5113246;27;20035;-69
2022/01/11 01:17:31;;;;;;;53.87;14.80;;;;;;;10.63;44.82;103072.53;5130574;27;20030;-69
2022/01/11 01:19:56;;;;;;;53.43;15.77;;;;;;;11.05;44.61;103077.88;5108304;27;20437;-69
2022/01/11 01:22:21;;;;;;;58.90;17.30;;;;;;;11.11;43.92;103067.53;5111385;28;20082;-69
2022/01/11 01:24:47;;;;;;;58.97;18.37;;;;;;;10.26;46.30;103079.38;5111904;28;20143;-69
2022/01/11 01:27:13;;;;;;;61.97;17.37;;;;;;;9.93;46.87;103082.81;5110438;28;20023;-69
2022/01/11 01:29:40;;;;;;;63.97;17.67;;;;;;;10.83;45.10;103087.81;5109242;28;20471;-69
2022/01/11 01:32:07;;;;;;;56.63;16.57;;;;;;;11.38;44.11;103078.63;5109265;28;20027;-69
2022/01/11 01:34:33;;;;;;;55.43;16.67;;;;;;;10.60;46.59;103089.84;5109480;28;20039;-69
2022/01/11 01:36:58;;;;;;;59.17;16.10;;;;;;;10.50;45.18;103093.97;5109484;28;20372;-68
2022/01/11 01:39:25;;;;;;;54.83;15.77;;;;;;;11.02;44.69;103095.25;5109736;27;20391;-69
2022/01/11 01:41:52;;;;;;;53.30;14.37;;;;;;;10.84;45.28;103100.06;5108815;28;20080;-69
2022/01/11 01:44:18;;;;;;;48.13;16.20;;;;;;;10.38;46.24;103104.09;5109629;28;20415;-68
2022/01/11 01:46:44;;;;;;;53.23;15.33;;;;;;;9.77;46.60;103104.09;5107270;28;20039;-69
2022/01/11 01:49:16;;;;;;;53.83;14.20;;;;;;;10.91;45.01;103096.75;5110536;28;20024;-69
2022/01/11 01:51:41;;;;;;;57.13;16.13;;;;;;;10.47;45.70;103106.97;5110376;28;20027;-69
2022/01/11 01:54:07;;;;;;;53.33;14.20;;;;;;;9.50;48.52;103105.91;5108226;28;20439;-69
2022/01/11 01:56:33;;;;;;;49.47;14.37;;;;;;;10.93;45.07;103099.41;5103998;28;20024;-68
2022/01/11 01:58:59;;;;;;;59.17;16.20;;;;;;;10.79;45.03;103106.91;5089032;28;20399;-69
2022/01/11 02:01:26;;;;;;;47.77;14.27;;;;;;;10.34;45.85;103119.69;5094139;28;20031;-69
2022/01/11 02:03:51;;;;;;;51.37;14.77;;;;;;;10.39;46.09;103116.31;5103979;28;20031;-69
2022/01/11 02:06:19;;;;;;;61.00;16.73;;;;;;;10.74;45.79;103103.28;5108379;28;20035;-69
2022/01/11 02:08:46;;;;;;;60.13;16.50;;;;;;;11.46;44.06;103112.00;5108497;28;20521;-69
2022/01/11 02:11:15;;;;;;;55.07;15.47;;;;;;;11.50;43.50;103109.47;5099935;28;20037;-69
2022/01/11 02:13:40;;;;;;;47.23;14.27;;;;;;;10.60;45.46;103119.50;5088994;28;20020;-69
2022/01/11 02:16:06;;;;;;;53.10;17.43;;;;;;;10.43;45.81;103112.94;5095125;28;20123;-69
2022/01/11 02:18:31;;;;;;;50.50;16.00;;;;;;;10.10;46.46;103113.75;5109403;28;20011;-69
2022/01/11 02:20:58;;;;;;;56.03;16.53;;;;;;;9.97;48.13;103113.41;5125486;27;20054;-68
2022/01/11 02:23:28;;;;;;;49.60;15.97;;;;;;;10.48;45.57;103108.72;5109733;28;20024;-68
2022/01/11 02:25:54;;;;;;;56.37;18.43;;;;;;;11.04;45.17;103113.63;5126158;27;20034;-68
2022/01/11 02:28:23;;;;;;;65.13;17.57;;;;;;;10.29;45.88;103121.25;5129850;28;20019;-69
2022/01/11 02:30:50;;;;;;;57.97;17.53;;;;;;;9.85;47.25;103118.28;5111487;28;20088;-68
2022/01/11 02:33:32;;;;;;;58.07;17.33;;;;;;;10.58;46.02;103120.28;5099681;28;20026;-69
2022/01/11 02:36:03;;;;;;;63.50;16.40;;;;;;;11.51;43.93;103115.56;5111645;28;20145;-69
2022/01/11 02:38:29;;;;;;;62.73;15.47;;;;;;;10.78;46.09;103118.22;5110010;28;20023;-69
2022/01/11 02:40:54;;;;;;;57.20;17.20;;;;;;;11.01;45.47;103121.41;5109642;28;20023;-69
2022/01/11 02:43:20;;;;;;;50.17;15.80;;;;;;;10.38;46.47;103122.38;5111552;28;20359;-69
2022/01/11 02:45:45;;;;;;;60.50;17.13;;;;;;;11.69;43.13;103118.63;5130652;28;20030;-69
2022/01/11 02:48:10;;;;;;;47.87;16.33;;;;;;;12.03;42.18;103116.75;5112872;28;20032;-69
2022/01/11 02:50:36;;;;;;;55.23;16.47;;;;;;;12.32;42.16;103102.41;5095870;28;20030;-68
2022/01/11 02:53:02;;;;;;;55.53;15.97;;;;;;;11.67;43.08;103107.22;5112265;28;20027;-69
2022/01/11 02:55:28;;;;;;;50.30;15.43;;;;;;;11.88;43.33;103106.78;5097429;28;20027;-69
2022/01/11 02:57:55;;;;;;;53.80;15.77;;;;;;;12.11;42.58;103109.03;5111525;28;20019;-69
2022/01/11 03:00:22;;;;;;;52.67;16.03;;;;;;;12.43;41.07;103106.13;5111408;28;20023;-69
2022/01/11 03:02:48;;;;;;;50.93;14.73;;;;;;;12.47;41.49;103122.81;5130574;28;20039;-70
2022/01/11 03:05:14;;;;;;;63.67;17.90;;;;;;;11.59;43.18;103114.00;5110908;28;20030;-69
2022/01/11 03:07:42;;;;;;;53.40;16.47;;;;;;;11.99;42.74;103114.91;5119227;28;20035;-69
2022/01/11 03:10:32;;;;;;;50.70;15.40;;;;;;;12.41;41.62;103120.09;5091538;28;20740;-69
2022/01/11 03:13:00;;;;;;;52.23;15.13;;;;;;;12.62;40.56;103117.84;5091769;28;20035;-69
2022/01/11 03:15:26;;;;;;;46.80;16.70;;;;;;;11.65;42.46;103119.41;5106420;27;20026;-69
2022/01/11 03:17:51;;;;;;;47.03;14.80;;;;;;;10.84;44.14;103134.06;5102973;28;20036;-68
2022/01/11 03:20:16;;;;;;;40.63;14.00;;;;;;;12.27;41.75;103136.44;5097704;27;20089;-68
2022/01/11 03:22:42;;;;;;;45.17;14.03;;;;;;;12.34;41.36;103148.81;5115990;27;20056;-69
2022/01/11 03:25:08;;;;;;;42.83;13.47;;;;;;;11.71;42.60;103156.19;5107415;27;20110;-69
2022/01/11 03:27:33;;;;;;;40.43;13.80;;;;;;;11.82;42.41;103153.81;5115138;27;20080;-69
2022/01/11 03:29:58;;;;;;;44.43;13.57;;;;;;;11.88;42.13;103160.94;5133453;27;20026;-69
2022/01/11 03:32:24;;;;;;;51.17;16.23;;;;;;;12.02;41.89;103156.91;5114533;27;20027;-69
2022/01/11 03:34:49;;;;;;;43.43;14.03;;;;;;;12.01;42.15;103155.13;5106621;27;20077;-69
2022/01/11 03:37:17;;;;;;;51.13;15.67;;;;;;;12.07;41.95;103148.25;5109404;28;20032;-69
2022/01/11 03:39:43;;;;;;;49.17;15.37;;;;;;;11.81;43.16;103131.06;5113057;27;20111;-69
2022/01/11 03:42:09;;;;;;;47.17;16.30;;;;;;;11.88;42.39;103139.97;5114978;27;20110;-69
2022/01/11 03:44:34;;;;;;;49.23;14.10;;;;;;;11.41;43.22;103137.19;5115207;27;20106;-69
2022/01/11 03:47:00;;;;;;;52.30;14.50;;;;;;;12.04;41.95;103134.22;5114543;27;20047;-69
2022/01/11 03:49:26;;;;;;;48.50;14.30;;;;;;;11.97;42.06;103137.56;5105991;28;20069;-69
2022/01/11 03:51:51;;;;;;;50.30;15.13;;;;;;;11.41;43.74;103129.31;5129981;27;20489;-69
2022/01/11 03:54:24;;;;;;;50.90;17.33;;;;;;;11.37;43.73;103124.03;5133218;27;20059;-69
2022/01/11 03:56:50;;;;;;;;;;;;;;;11.98;41.70;103112.25;5115358;27;20031;-69
2022/01/11 03:59:16;;;;;;;47.47;13.57;;;;;;;12.01;41.41;103113.19;5115118;27;20180;-69
2022/01/11 04:01:42;;;;;;;37.50;12.33;;;;;;;12.19;40.89;103122.28;5113944;27;20075;-69
2022/01/11 04:04:09;;;;;;;45.73;15.90;;;;;;;11.90;42.60;103130.41;5106664;28;20039;-69
2022/01/11 04:06:35;;;;;;;42.93;14.27;;;;;;;12.61;40.64;103126.59;5130182;27;20577;-68
2022/01/11 04:09:01;;;;;;;43.50;15.37;;;;;;;12.42;40.97;103114.88;5114377;27;20122;-69
2022/01/11 04:11:27;;;;;;;51.67;17.30;;;;;;;12.28;40.95;103117.22;5113288;27;20054;-69
2022/01/11 04:13:52;;;;;;;45.07;14.67;;;;;;;11.99;42.33;103125.41;5112980;27;20053;-69
2022/01/11 04:16:17;;;;;;;41.80;16.20;;;;;;;12.25;41.40;103121.53;5113887;27;20060;-69
2022/01/11 04:18:43;;;;;;;49.90;15.30;;;;;;;11.87;42.83;103135.59;5133291;27;20390;-69
2022/01/11 04:21:08;;;;;;;48.10;15.40;;;;;;;10.85;43.74;103122.75;5112778;27;20533;-69
2022/01/11 04:23:35;;;;;;;47.17;14.23;;;;;;;11.10;44.07;103123.34;5133356;27;20063;-69
2022/01/11 04:26:00;;;;;;;47.50;14.57;;;;;;;12.09;41.96;103125.56;5104200;28;20023;-69
2022/01/11 04:28:29;;;;;;;38.83;13.97;;;;;;;12.36;40.24;103131.38;5111164;27;20023;-69
2022/01/11 04:31:00;;;;;;;46.77;15.23;;;;;;;13.07;39.70;103132.59;5114255;27;20030;-69
2022/01/11 04:33:29;;;;;;;46.70;15.17;;;;;;;12.68;40.24;103123.22;5132783;27;20031;-69
2022/01/11 04:35:56;;;;;;;46.40;15.70;;;;;;;13.00;39.38;103133.38;5123403;27;20062;-69
2022/01/11 04:38:24;;;;;;;47.23;15.63;;;;;;;11.54;42.09;103144.47;5111903;28;20475;-69
2022/01/11 04:40:50;;;;;;;48.93;16.57;;;;;;;11.92;41.58;103146.16;5100353;27;20023;-69
2022/01/11 04:43:15;;;;;;;51.43;15.47;;;;;;;11.92;41.61;103146.16;5113256;27;20026;-69
2022/01/11 04:45:41;;;;;;;39.60;14.37;;;;;;;12.29;41.06;103145.19;5113959;27;20130;-69
2022/01/11 04:48:06;;;;;;;52.37;15.13;;;;;;;11.96;41.24;103135.81;5132151;27;20026;-69
2022/01/11 04:50:32;;;;;;;42.80;13.70;;;;;;;11.91;41.65;103142.66;5130864;27;20027;-68
2022/01/11 04:52:58;;;;;;;40.23;15.00;;;;;;;10.85;43.11;103144.56;5109016;28;20038;-69
2022/01/11 04:55:24;;;;;;;48.03;15.10;;;;;;;11.86;42.33;103150.41;5116843;27;20093;-69
2022/01/11 04:57:49;;;;;;;46.60;14.73;;;;;;;11.70;42.45;103143.97;5131056;27;20023;-69
2022/01/11 05:00:17;;;;;;;48.77;15.17;;;;;;;12.55;40.60;103142.19;5113874;27;20029;-69
2022/01/11 05:02:43;;;;;;;39.87;15.20;;;;;;;11.77;41.75;103144.97;5132149;27;20019;-69
2022/01/11 05:05:09;;;;;;;43.53;15.63;;;;;;;11.36;43.21;103148.44;5129985;27;20046;-69
2022/01/11 05:07:34;;;;;;;44.73;13.40;;;;;;;11.90;42.25;103135.66;5113968;27;20076;-69
2022/01/11 05:10:00;;;;;;;45.03;14.33;;;;;;;11.65;41.82;103137.75;5113117;27;20412;-69
2022/01/11 05:12:26;;;;;;;34.47;12.10;;;;;;;10.97;42.60;103138.75;5113232;27;20470;-69
2022/01/11 05:14:51;;;;;;;46.97;15.10;;;;;;;11.63;41.63;103134.19;5111375;27;20162;-69
2022/01/11 05:17:16;;;;;;;43.17;13.27;;;;;;;12.08;41.47;103144.78;5112815;27;20088;-68
2022/01/11 05:19:42;;;;;;;45.17;15.77;;;;;;;12.38;40.65;103150.63;5131811;27;20055;-69
2022/01/11 05:22:07;;;;;;;43.30;14.07;;;;;;;11.63;41.89;103139.44;5113100;27;20122;-69
2022/01/11 05:24:32;;;;;;;40.73;13.90;;;;;;;11.20;42.82;103156.78;5112743;27;20028;-69
2022/01/11 05:26:58;;;;;;;40.33;14.27;;;;;;;11.32;43.08;103136.13;5108937;27;20068;-69
2022/01/11 05:29:23;;;;;;;44.50;14.90;;;;;;;11.02;43.67;103146.75;5113134;27;20050;-69
2022/01/11 05:31:49;;;;;;;46.83;15.03;;;;;;;11.85;42.55;103158.25;5130912;27;20491;-69
2022/01/11 05:34:14;;;;;;;46.77;14.70;;;;;;;12.33;41.43;103151.41;5112685;27;20031;-69
2022/01/11 05:36:39;;;;;;;50.07;16.10;;;;;;;10.94;43.28;103177.94;5096627;28;20031;-69
2022/01/11 05:39:05;;;;;;;42.03;14.07;;;;;;;10.63;43.57;103174.53;5091200;28;20076;-69
2022/01/11 05:41:31;;;;;;;48.57;14.97;;;;;;;11.01;42.87;103161.53;5125759;27;20042;-68
2022/01/11 05:43:57;;;;;;;40.73;13.33;;;;;;;12.35;40.75;103166.31;5113276;27;20030;-69
2022/01/11 05:46:23;;;;;;;41.50;14.93;;;;;;;10.90;43.29;103168.22;5111181;27;20035;-69
2022/01/11 05:48:48;;;;;;;47.70;14.00;;;;;;;11.38;42.83;103157.19;5107877;27;20030;-69
2022/01/11 05:51:17;;;;;;;38.10;14.73;;;;;;;11.05;42.80;103166.88;5128942;27;20035;-69
2022/01/11 05:53:43;;;;;;;50.77;15.87;;;;;;;11.18;43.84;103168.91;5128457;27;20042;-69
2022/01/11 05:56:08;;;;;;;47.30;15.77;;;;;;;12.14;41.53;103160.63;5111798;27;20035;-68
2022/01/11 05:58:34;;;;;;;44.60;15.17;;;;;;;11.85;40.80;103172.22;5130587;27;20023;-69
2022/01/11 06:00:59;;;;;;;47.73;16.40;;;;;;;10.67;43.36;103180.69;5111329;27;20075;-69
2022/01/11 06:03:25;;;;;;;39.83;14.57;;;;;;;11.68;42.22;103174.47;5111486;27;20114;-69
2022/01/11 06:05:50;;;;;;;44.10;15.50;;;;;;;11.65;42.77;103165.66;5130747;27;20034;-69
2022/01/11 06:08:18;;;;;;;48.33;15.53;;;;;;;11.15;43.46;103166.25;5111368;27;20422;-69
2022/01/11 06:10:45;;;;;;;43.97;14.40;;;;;;;11.92;41.29;103162.75;5116132;28;20023;-69
2022/01/11 06:13:10;;;;;;;49.30;16.50;;;;;;;10.86;43.46;103163.75;5111506;28;20042;-69
2022/01/11 06:15:36;;;;;;;43.77;15.20;;;;;;;10.89;43.82;103174.31;5111192;27;20019;-69
2022/01/11 06:18:02;;;;;;;43.10;15.40;;;;;;;11.96;41.88;103164.63;5112298;27;20038;-69
2022/01/11 06:20:28;;;;;;;43.73;14.60;;;;;;;11.22;42.56;103160.28;5123178;27;20123;-69
2022/01/11 06:22:54;;;;;;;53.13;16.93;;;;;;;11.76;41.50;103158.03;5109922;28;20023;-69
2022/01/11 06:25:20;;;;;;;41.87;13.30;;;;;;;12.04;40.95;103163.06;5104840;27;20019;-69
2022/01/11 06:27:46;;;;;;;54.17;17.27;;;;;;;11.18;43.58;103179.38;5108524;28;20023;-69
2022/01/11 06:30:11;;;;;;;39.27;14.47;;;;;;;10.85;44.33;103178.59;5125692;28;20375;-69
2022/01/11 06:32:38;;;;;;;46.90;15.30;;;;;;;11.94;41.83;103174.22;5111501;28;20019;-69
2022/01/11 06:35:05;;;;;;;46.60;14.30;;;;;;;11.08;42.78;103188.75;5129666;28;20034;-69
2022/01/11 06:37:30;;;;;;;44.63;14.27;;;;;;;10.64;43.91;103186.72;5111921;28;20148;-69
2022/01/11 06:39:56;;;;;;;38.77;14.07;;;;;;;10.90;44.39;103191.78;5130416;28;20059;-69
2022/01/11 06:42:22;;;;;;;40.10;12.73;;;;;;;10.78;43.96;103186.22;5111194;28;20027;-69
2022/01/11 06:44:47;;;;;;;38.30;11.83;;;;;;;10.61;44.69;103191.88;5130802;28;20102;-69
2022/01/11 06:47:13;;;;;;;42.60;13.63;;;;;;;10.83;43.50;103182.00;5112191;28;20046;-69
2022/01/11 06:49:39;;;;;;;45.37;14.10;;;;;;;11.42;42.83;103180.88;5113002;27;20432;-69
2022/01/11 06:52:04;;;;;;;34.80;12.27;;;;;;;11.19;42.56;103176.81;5116037;27;20031;-69
2022/01/11 06:54:30;;;;;;;39.57;13.77;;;;;;;10.35;44.54;103189.41;5116158;27;20031;-69
2022/01/11 06:56:56;;;;;;;38.33;12.47;;;;;;;10.75;44.09;103201.84;5115328;27;20109;-69
2022/01/11 06:59:22;;;;;;;34.50;13.70;;;;;;;10.75;43.88;103201.84;5134134;27;20030;-69
2022/01/11 07:01:48;;;;;;;35.60;11.63;;;;;;;10.78;43.53;103205.41;5115872;27;20015;-69
2022/01/11 07:04:13;;;;;;;42.33;14.13;;;;;;;12.07;40.98;103195.44;5115073;27;20034;-69
2022/01/11 07:06:39;;;;;;;36.93;12.07;;;;;;;10.78;43.58;103209.78;5115993;27;20075;-69
2022/01/11 07:09:04;;;;;;;32.00;11.87;;;;;;;10.92;42.76;103213.66;5115615;27;20082;-69
2022/01/11 07:11:29;;;;;;;40.03;13.30;;;;;;;12.05;41.45;103209.41;5115062;27;20029;-69
2022/01/11 07:13:55;;;;;;;33.87;12.00;;;;;;;11.34;42.76;103207.72;5115738;27;20031;-69
2022/01/11 07:16:20;;;;;;;31.27;11.63;;;;;;;10.71;43.12;103220.91;5133467;27;20029;-69
2022/01/11 07:18:47;;;;;;;35.07;12.43;;;;;;;10.68;43.44;103217.34;5133695;27;20022;-69
2022/01/11 07:21:12;;;;;;;30.77;11.90;;;;;;;10.75;43.70;103225.38;5115134;27;20054;-69
2022/01/11 07:23:37;;;;;;;28.00;10.37;;;;;;;10.14;44.32;103220.16;5114865;27;20031;-69
2022/01/11 07:26:03;;;;;;;29.00;11.83;;;;;;;11.96;40.94;103224.91;5115036;27;20087;-69
2022/01/11 07:28:31;;;;;;;33.77;10.33;;;;;;;10.93;42.25;103236.34;5133850;27;20550;-69
2022/01/11 07:30:56;;;;;;;32.37;12.07;;;;;;;11.26;42.12;103238.06;5114608;27;20027;-69
2022/01/11 07:33:22;;;;;;;30.90;10.67;;;;;;;11.98;40.48;103233.72;5114890;27;20252;-68
2022/01/11 07:35:47;;;;;;;28.73;10.63;;;;;;;10.76;42.25;103248.09;5115464;27;20088;-69
2022/01/11 07:38:13;;;;;;;33.50;11.80;;;;;;;11.66;41.28;103239.06;5114677;27;20104;-69
2022/01/11 07:40:38;;;;;;;32.03;12.13;;;;;;;12.08;40.53;103244.41;5115252;27;20027;-69
2022/01/11 07:43:04;;;;;;;33.73;12.63;;;;;;;11.51;41.85;103244.81;5114957;27;20080;-69
2022/01/11 07:45:29;;;;;;;32.20;10.60;;;;;;;11.61;41.02;103245.03;5114175;27;20022;-68
2022/01/11 07:47:54;;;;;;;26.20;11.63;;;;;;;11.30;41.31;103246.91;5133676;27;20088;-69
2022/01/11 07:50:20;;;;;;;25.07;9.93;;;;;;;11.30;41.65;103244.28;5133196;27;20035;-68
2022/01/11 07:52:46;;;;;;;29.20;10.03;;;;;;;12.23;39.72;103242.13;5133093;27;20068;-68
2022/01/11 07:55:11;;;;;;;27.57;9.63;;;;;;;11.56;40.74;103247.53;5114592;27;20486;-68
2022/01/11 07:57:37;;;;;;;25.30;10.53;;;;;;;12.27;39.53;103254.44;5114923;27;20030;-68
2022/01/11 08:00:07;;;;;;;27.50;9.77;;;;;;;12.33;38.89;103257.19;5132372;27;20076;-68
2022/01/11 08:02:32;;;;;;;26.67;10.30;;;;;;;11.70;40.11;103259.25;5114048;27;20114;-69
2022/01/11 08:04:58;;;;;;;26.87;10.03;;;;;;;12.52;39.18;103265.44;5114940;27;20106;-68
2022/01/11 08:07:23;;;;;;;33.53;10.77;;;;;;;12.22;39.69;103263.94;5113840;27;20069;-71
2022/01/11 08:09:48;;;;;;;29.93;10.50;;;;;;;12.15;39.21;103259.41;5114570;27;20053;-71
2022/01/11 08:12:14;;;;;;;25.67;10.60;;;;;;;12.46;38.98;103262.69;5114688;27;20045;-68
2022/01/11 08:14:39;;;;;;;34.17;11.40;;;;;;;11.88;40.11;103263.13;5113757;27;20027;-69
2022/01/11 08:17:04;;;;;;;33.47;11.20;;;;;;;11.27;41.58;103263.41;5132894;27;20482;-68
2022/01/11 08:19:30;;;;;;;27.77;10.50;;;;;;;11.59;40.69;103265.06;5114318;27;20463;-68
2022/01/11 08:21:57;;;;;;;27.97;11.67;;;;;;;11.15;41.30;103263.09;5132385;27;20034;-69
2022/01/11 08:24:23;;;;;;;27.57;9.93;;;;;;;11.50;42.15;103265.75;5132765;27;20292;-68
2022/01/11 08:26:53;;;;;;;27.90;10.13;;;;;;;11.69;41.16;103257.47;5114494;27;20041;-68
2022/01/11 08:29:21;;;;;;;25.17;9.57;;;;;;;12.25;39.58;103255.25;5114090;27;20072;-69
2022/01/11 08:31:48;;;;;;;27.50;9.03;;;;;;;12.03;40.10;103268.78;5114714;27;20511;-69
2022/01/11 08:34:14;;;;;;;24.30;10.10;;;;;;;12.28;39.44;103264.09;5113303;27;20371;-69
2022/01/11 08:36:45;;;;;;;27.17;10.47;;;;;;;11.86;40.51;103270.09;5114386;27;20076;-68
2022/01/11 08:39:11;;;;;;;24.57;10.17;;;;;;;12.14;40.13;103265.50;5113959;27;20031;-68
2022/01/11 08:41:40;;;;;;;21.53;8.53;;;;;;;12.25;40.02;103268.38;5131404;27;20486;-69
2022/01/11 08:44:06;;;;;;;26.00;10.13;;;;;;;12.00;40.46;103263.44;5113573;27;20489;-70
2022/01/11 08:46:31;;;;;;;24.67;9.80;;;;;;;12.43;38.98;103265.25;5113952;27;20137;-71
2022/01/11 08:48:57;;;;;;;26.20;9.77;;;;;;;12.42;39.49;103267.00;5113168;27;20031;-69
2022/01/11 08:51:24;;;;;;;26.60;10.00;;;;;;;12.47;38.99;103269.69;5113229;27;20509;-68
2022/01/11 08:53:49;;;;;;;24.17;9.87;;;;;;;11.91;39.66;103265.84;5113849;27;20114;-68
2022/01/11 08:56:17;;;;;;;29.70;9.63;;;;;;;11.65;41.08;103268.72;5112846;27;20118;-69
2022/01/11 08:58:44;;;;;;;24.97;8.97;;;;;;;11.89;41.02;103271.03;5132224;27;20551;-69
2022/01/11 09:01:09;;;;;;;24.17;8.50;;;;;;;11.81;40.82;103271.72;5131404;27;20466;-69
2022/01/11 09:03:34;;;;;;;22.57;9.40;;;;;;;11.89;40.18;103276.25;5131418;27;20034;-69
2022/01/11 09:06:00;;;;;;;26.00;10.27;;;;;;;11.73;41.24;103273.25;5113807;27;20027;-69
2022/01/11 09:08:25;;;;;;;26.87;9.47;;;;;;;12.29;39.59;103281.56;5113348;27;20031;-69
2022/01/11 09:10:51;;;;;;;21.23;9.60;;;;;;;11.63;40.65;103275.66;5130894;27;20103;-69
2022/01/11 09:13:18;;;;;;;24.33;8.63;;;;;;;11.34;41.26;103286.28;5112359;27;20027;-69
2022/01/11 09:15:43;;;;;;;22.00;8.57;;;;;;;12.16;40.08;103284.78;5113368;27;20482;-68
2022/01/11 09:18:10;;;;;;;22.63;9.57;;;;;;;12.28;39.22;103289.41;5130671;27;20025;-69
2022/01/11 09:20:36;;;;;;;23.30;9.00;;;;;;;12.49;39.22;103294.25;5131447;27;20052;-68
2022/01/11 09:23:02;;;;;;;27.23;9.93;;;;;;;12.17;40.45;103290.06;5131637;27;20033;-69
2022/01/11 09:25:28;;;;;;;21.13;8.63;;;;;;;11.95;40.29;103291.31;5130970;27;20019;-69
2022/01/11 09:27:53;;;;;;;20.27;7.97;;;;;;;12.50;39.03;103296.00;5113268;27;20071;-68
2022/01/11 09:30:19;;;;;;;22.37;9.03;;;;;;;11.92;40.87;103295.56;5112445;27;20027;-68
2022/01/11 09:32:45;;;;;;;24.80;8.43;;;;;;;12.49;39.73;103296.88;5113211;27;20073;-69
2022/01/11 09:35:12;;;;;;;22.47;8.53;;;;;;;12.41;38.97;103299.31;5131174;27;20463;-69
2022/01/11 09:37:38;;;;;;;23.80;8.80;;;;;;;12.82;38.73;103301.91;5130887;27;20035;-69
2022/01/11 09:40:06;;;;;;;21.27;8.23;;;;;;;12.82;38.63;103303.66;5112674;27;20033;-71
2022/01/11 09:42:32;;;;;;;21.40;10.00;;;;;;;12.26;39.51;103297.25;5131378;27;20027;-69
2022/01/11 09:44:58;;;;;;;21.60;8.30;;;;;;;12.14;39.23;103307.44;5130718;27;20023;-70
2022/01/11 09:47:24;;;;;;;22.27;9.00;;;;;;;11.92;40.44;103311.28;5112389;27;20497;-70
2022/01/11 09:49:49;;;;;;;21.67;9.00;;;;;;;12.75;38.80;103301.75;5131470;27;20019;-68
2022/01/11 09:52:16;;;;;;;22.60;8.37;;;;;;;11.39;41.72;103309.97;5112123;27;20047;-68
2022/01/11 09:54:47;;;;;;;29.13;8.93;;;;;;;12.38;39.35;103304.50;5112847;27;20027;-68
2022/01/11 09:57:13;;;;;;;23.83;9.00;;;;;;;12.01;40.03;103307.16;5112666;27;20031;-69
2022/01/11 09:59:39;;;;;;;19.80;9.20;;;;;;;11.60;41.09;103314.88;5112188;27;20431;-68
2022/01/11 10:02:05;;;;;;;24.07;8.10;;;;;;;11.49;41.36;103311.09;5112468;27;20478;-68
2022/01/11 10:04:34;;;;;;;23.90;10.23;;;;;;;11.94;41.02;103305.25;5112578;27;20105;-68
2022/01/11 10:07:05;;;;;;;21.73;7.90;;;;;;;11.58;40.65;103311.34;5111888;27;20042;-68
2022/01/11 10:09:40;;;;;;;19.37;8.20;;;;;;;10.91;42.17;103311.31;5131114;27;20109;-68
2022/01/11 10:12:09;;;;;;;21.10;9.20;;;;;;;12.43;39.61;103294.97;5111999;27;20025;-70
2022/01/11 10:14:37;;;;;;;23.93;9.90;;;;;;;11.62;40.79;103302.72;5130128;27;20523;-71
2022/01/11 10:17:06;;;;;;;20.03;8.80;;;;;;;12.07;40.70;103300.31;5112516;28;20116;-70
2022/01/11 10:19:32;;;;;;;20.13;8.10;;;;;;;12.66;38.99;103299.84;5111465;27;20071;-71
2022/01/11 10:22:01;;;;;;;18.70;9.10;;;;;;;11.63;40.93;103312.31;5112502;27;20039;-70
2022/01/11 10:24:38;;;;;;;20.70;8.97;;;;;;;13.05;38.42;103297.13;5129902;27;20030;-71
2022/01/11 10:27:17;;;;;;;30.57;9.67;;;;;;;12.62;39.77;103301.50;5111498;28;20031;-70
2022/01/11 10:29:46;;;;;;;21.70;8.27;;;;;;;12.31;40.57;103292.09;5130815;27;20039;-68
2022/01/11 10:32:21;;;;;;;22.50;9.30;;;;;;;12.26;40.22;103291.13;5111998;28;20124;-69
2022/01/11 10:34:52;;;;;;;25.13;8.63;;;;;;;12.16;40.55;103300.53;5111645;28;20398;-68
2022/01/11 10:37:30;;;;;;;23.93;8.63;;;;;;;11.64;41.89;103306.25;5112139;28;20042;-68
2022/01/11 10:40:22;;;;;;;20.17;7.60;;;;;;;12.44;39.84;103303.75;5130627;28;20027;-68
2022/01/11 10:42:49;;;;;;;20.80;8.17;;;;;;;11.49;42.19;103316.34;5111418;28;20098;-68
2022/01/11 10:45:26;;;;;;;24.40;8.27;;;;;;;12.13;40.45;103321.41;5112080;28;20625;-68
2022/01/11 10:47:57;;;;;;;26.03;8.00;;;;;;;11.93;41.16;103336.66;5111074;28;20071;-68
2022/01/11 10:50:34;;;;;;;19.83;8.20;;;;;;;12.58;39.56;103331.16;5111910;28;20287;-69
2022/01/11 10:53:03;;;;;;;23.57;8.90;;;;;;;12.21;40.14;103338.19;5112062;28;20110;-69
2022/01/11 10:55:32;;;;;;;17.47;7.57;;;;;;;12.42;39.74;103334.28;5111000;28;20027;-68
2022/01/11 10:58:03;;;;;;;20.83;8.77;;;;;;;12.84;40.28;103336.06;5111980;28;20057;-68
2022/01/11 11:00:30;;;;;;;20.87;9.13;;;;;;;13.04;39.19;103332.09;5111559;28;20110;-68
2022/01/11 11:03:06;;;;;;;24.07;8.70;;;;;;;13.17;39.59;103332.31;5111208;28;20023;-68
2022/01/11 11:05:39;;;;;;;19.57;8.30;;;;;;;14.53;37.65;103324.88;5130135;28;20027;-68
2022/01/11 11:08:11;;;;;;;19.77;7.67;;;;;;;14.08;37.29;103312.84;5130168;28;20031;-68
2022/01/11 11:10:49;;;;;;;17.60;7.17;;;;;;;13.31;39.30;103317.72;5111095;28;20026;-68
2022/01/11 11:13:26;;;;;;;17.87;7.63;;;;;;;12.88;40.13;103314.28;5111570;28;20031;-68
2022/01/11 11:15:56;;;;;;;18.63;7.30;;;;;;;12.81;40.10;103307.13;5111010;28;20026;-68